Time;durP1;ratioP1;P1;durP2;ratioP2;P2;SDS_P1;SDS_P2;PMS_P1;PMS_P2;Temp;Humidity;BMP_temperature;BMP_pressure;BME280_temperature;BME280_humidity;BME280_pressure;Samples;Min_cycle;Max_cycle;Signal;HPM_P1;HPM_P2
2023/08/05 00:01:24;;;;;;;6.57;5.22;;;18.20;99.90;;;;;;5051826;28;20279;-61
2023/08/05 00:03:51;;;;;;;6.50;5.50;;;18.20;99.90;;;;;;5051596;28;20684;-61
2023/08/05 00:06:18;;;;;;;10.70;5.80;;;18.20;99.90;;;;;;5051351;28;20583;-62
2023/08/05 00:08:46;;;;;;;7.53;5.70;;;18.10;99.90;;;;;;5051748;28;20558;-62
2023/08/05 00:11:12;;;;;;;7.60;5.40;;;18.10;99.90;;;;;;5051607;28;20212;-62
2023/08/05 00:13:39;;;;;;;6.95;5.22;;;18.10;99.90;;;;;;5051450;28;20197;-62
2023/08/05 00:16:06;;;;;;;8.18;5.70;;;18.10;99.90;;;;;;5051386;28;20226;-62
2023/08/05 00:18:33;;;;;;;9.40;5.00;;;18.10;99.90;;;;;;5051439;28;20206;-61
2023/08/05 00:20:59;;;;;;;8.63;5.47;;;18.10;99.90;;;;;;5051688;28;20229;-62
2023/08/05 00:23:26;;;;;;;6.40;5.30;;;18.10;99.90;;;;;;5051556;28;20209;-62
2023/08/05 00:25:54;;;;;;;8.02;5.50;;;18.10;99.90;;;;;;5051193;28;20232;-62
2023/08/05 00:28:21;;;;;;;8.50;5.65;;;18.10;99.90;;;;;;5051350;28;20212;-62
2023/08/05 00:30:47;;;;;;;6.40;4.57;;;18.10;99.90;;;;;;5051469;28;20201;-62
2023/08/05 00:33:14;;;;;;;11.18;5.50;;;18.10;99.90;;;;;;5051658;28;20209;-61
2023/08/05 00:35:41;;;;;;;8.10;5.35;;;18.10;99.90;;;;;;5051895;28;20233;-58
2023/08/05 00:38:07;;;;;;;7.57;5.30;;;18.10;99.90;;;;;;5051903;28;20205;-59
2023/08/05 00:40:34;;;;;;;8.23;4.95;;;18.00;99.90;;;;;;5051463;28;20340;-58
2023/08/05 00:43:02;;;;;;;9.65;5.30;;;18.00;99.90;;;;;;5051768;28;20232;-58
2023/08/05 00:45:29;;;;;;;7.47;5.45;;;18.00;99.90;;;;;;5055082;28;20280;-58
2023/08/05 00:47:56;;;;;;;5.85;4.65;;;18.00;99.90;;;;;;5054895;28;20208;-60
2023/08/05 00:50:24;;;;;;;9.10;5.43;;;18.00;99.90;;;;;;5055209;28;20209;-59
2023/08/05 00:52:51;;;;;;;8.23;5.40;;;18.00;99.90;;;;;;5055025;28;20604;-57
2023/08/05 00:55:18;;;;;;;6.57;5.03;;;18.00;99.90;;;;;;5054935;28;20229;-58
2023/08/05 00:57:45;;;;;;;8.02;5.03;;;18.00;99.90;;;;;;5054686;28;20212;-60
2023/08/05 01:00:13;;;;;;;16.45;5.72;;;18.00;99.90;;;;;;5054836;28;20205;-58
2023/08/05 01:02:40;;;;;;;9.27;5.10;;;18.00;99.90;;;;;;5054970;28;20263;-59
2023/08/05 01:05:07;;;;;;;8.07;5.30;;;17.90;99.90;;;;;;5055385;28;20225;-58
2023/08/05 01:07:36;;;;;;;7.40;4.68;;;17.90;99.90;;;;;;5054704;28;20210;-58
2023/08/05 01:10:02;;;;;;;6.53;5.07;;;17.90;99.90;;;;;;5054890;28;20666;-60
2023/08/05 01:12:30;;;;;;;6.53;5.10;;;17.90;99.90;;;;;;5054864;28;20201;-59
2023/08/05 01:14:57;;;;;;;5.88;4.95;;;17.90;99.90;;;;;;5054509;28;20252;-58
2023/08/05 01:17:25;;;;;;;6.03;4.68;;;18.00;99.90;;;;;;5054852;28;20209;-57
2023/08/05 01:19:52;;;;;;;5.88;4.90;;;17.90;99.90;;;;;;5054869;28;20201;-57
2023/08/05 01:22:25;;;;;;;7.70;4.85;;;17.90;99.90;;;;;;5054467;28;20225;-58
2023/08/05 01:24:59;;;;;;;8.65;5.10;;;17.80;99.90;;;;;;5054396;28;20236;-57
2023/08/05 01:27:28;;;;;;;6.93;4.60;;;17.70;99.90;;;;;;5054041;28;20201;-58
2023/08/05 01:29:55;;;;;;;7.78;4.72;;;17.80;99.90;;;;;;5054507;28;20201;-59
2023/08/05 01:32:23;;;;;;;7.20;5.32;;;17.80;99.90;;;;;;5054568;28;20700;-58
2023/08/05 01:34:50;;;;;;;7.88;4.78;;;17.80;99.90;;;;;;5054313;28;20229;-58
2023/08/05 01:37:17;;;;;;;5.65;4.68;;;17.80;99.90;;;;;;5054177;28;20206;-57
2023/08/05 01:39:43;;;;;;;7.78;4.93;;;17.80;99.90;;;;;;5054342;28;20674;-58
2023/08/05 01:42:10;;;;;;;5.90;5.25;;;17.80;99.90;;;;;;5054351;28;20229;-58
2023/08/05 01:44:38;;;;;;;6.30;4.95;;;17.90;99.90;;;;;;5054113;28;20412;-57
2023/08/05 01:47:05;;;;;;;6.28;4.97;;;17.80;99.90;;;;;;5053919;28;20558;-58
2023/08/05 01:49:32;;;;;;;6.93;4.80;;;17.80;99.90;;;;;;5054142;28;20206;-58
2023/08/05 01:51:59;;;;;;;6.60;4.60;;;17.80;99.90;;;;;;5053931;28;20209;-58
2023/08/05 01:54:25;;;;;;;5.85;4.65;;;17.80;99.90;;;;;;5053686;28;20226;-59
2023/08/05 01:56:52;;;;;;;8.38;4.90;;;17.80;99.90;;;;;;5053791;28;20210;-58
2023/08/05 01:59:19;;;;;;;5.15;4.65;;;17.80;99.90;;;;;;5054014;28;20228;-58
2023/08/05 02:01:48;;;;;;;6.50;4.85;;;17.70;99.90;;;;;;5053713;28;20646;-60
2023/08/05 02:04:14;;;;;;;7.30;4.72;;;17.60;99.90;;;;;;5053854;28;20275;-59
2023/08/05 02:06:41;;;;;;;7.70;5.20;;;17.60;99.90;;;;;;5053446;28;20206;-58
2023/08/05 02:09:08;;;;;;;6.57;4.60;;;17.60;99.90;;;;;;5053515;28;20294;-58
2023/08/05 02:11:35;;;;;;;11.98;9.63;;;17.60;99.90;;;;;;5053692;28;20201;-57
2023/08/05 02:14:02;;;;;;;8.27;4.88;;;17.60;99.90;;;;;;5053793;28;20312;-59
2023/08/05 02:16:29;;;;;;;9.23;4.68;;;17.60;99.90;;;;;;5053813;28;20213;-57
2023/08/05 02:18:57;;;;;;;7.97;4.82;;;17.60;99.90;;;;;;5053660;28;20566;-57
2023/08/05 02:21:24;;;;;;;6.00;4.30;;;17.60;99.90;;;;;;5053052;28;20588;-57
2023/08/05 02:23:51;;;;;;;7.25;5.97;;;17.60;99.90;;;;;;5053445;28;20224;-57
2023/08/05 02:26:18;;;;;;;7.13;4.57;;;17.60;99.90;;;;;;5053219;28;20240;-58
2023/08/05 02:28:45;;;;;;;11.95;5.22;;;17.60;99.90;;;;;;5053403;28;20232;-58
2023/08/05 02:31:12;;;;;;;6.35;4.57;;;17.60;99.90;;;;;;5053233;28;20210;-58
2023/08/05 02:33:39;;;;;;;5.55;4.55;;;17.60;99.90;;;;;;5053188;28;20205;-57
2023/08/05 02:36:07;;;;;;;5.22;4.40;;;17.50;99.90;;;;;;5052491;28;20233;-57
2023/08/05 02:38:34;;;;;;;7.07;4.75;;;17.50;99.90;;;;;;5053089;28;20212;-58
2023/08/05 02:41:01;;;;;;;7.85;5.50;;;17.40;99.90;;;;;;5053089;28;20206;-59
2023/08/05 02:43:27;;;;;;;6.72;4.75;;;17.30;99.90;;;;;;5052831;28;20712;-58
2023/08/05 02:45:55;;;;;;;7.72;4.72;;;17.30;99.90;;;;;;5052674;28;20225;-57
2023/08/05 02:48:21;;;;;;;6.90;5.00;;;17.20;99.90;;;;;;5052962;28;20561;-57
2023/08/05 02:50:48;;;;;;;11.15;7.70;;;17.10;99.90;;;;;;5052782;28;20213;-58
2023/08/05 02:53:16;;;;;;;14.35;6.95;;;17.00;99.90;;;;;;5053129;28;20212;-58
2023/08/05 02:55:43;;;;;;;7.43;4.93;;;17.00;99.90;;;;;;5052736;28;20233;-58
2023/08/05 02:58:10;;;;;;;9.23;6.07;;;16.90;99.90;;;;;;5052769;28;20202;-58
2023/08/05 03:00:37;;;;;;;7.72;5.82;;;16.80;99.90;;;;;;5052613;28;20688;-57
2023/08/05 03:03:05;;;;;;;6.95;4.80;;;16.80;99.90;;;;;;5052439;28;20229;-58
2023/08/05 03:05:32;;;;;;;7.47;4.88;;;16.80;99.90;;;;;;5052250;28;20599;-58
2023/08/05 03:07:58;;;;;;;8.20;5.32;;;16.80;99.90;;;;;;5052116;28;20587;-58
2023/08/05 03:10:26;;;;;;;7.57;5.70;;;16.80;99.90;;;;;;5052503;28;20595;-60
2023/08/05 03:12:53;;;;;;;9.13;7.85;;;16.70;99.90;;;;;;5052605;28;20210;-61
2023/08/05 03:15:20;;;;;;;9.50;5.53;;;16.70;99.90;;;;;;5052308;28;20229;-58
2023/08/05 03:17:46;;;;;;;6.63;5.35;;;16.80;99.90;;;;;;5051956;28;20206;-58
2023/08/05 03:20:23;;;;;;;9.13;5.25;;;16.80;99.90;;;;;;5052482;28;20213;-59
2023/08/05 03:22:51;;;;;;;5.50;4.80;;;16.90;99.90;;;;;;5052279;28;20308;-58
2023/08/05 03:25:18;;;;;;;8.75;6.38;;;16.90;99.90;;;;;;5052312;28;20237;-59
2023/08/05 03:27:46;;;;;;;7.00;5.40;;;17.00;99.90;;;;;;5051857;28;20210;-59
2023/08/05 03:30:13;;;;;;;10.73;5.78;;;17.00;99.90;;;;;;5052156;28;20205;-58
2023/08/05 03:32:39;;;;;;;6.70;4.97;;;17.10;99.90;;;;;;5052483;28;20395;-58
2023/08/05 03:35:06;;;;;;;9.00;6.88;;;17.10;99.90;;;;;;5052461;28;20240;-59
2023/08/05 03:37:33;;;;;;;9.27;5.53;;;17.20;99.90;;;;;;5052326;28;20214;-58
2023/08/05 03:40:00;;;;;;;7.13;5.13;;;17.20;99.90;;;;;;5052080;28;20259;-59
2023/08/05 03:42:27;;;;;;;8.07;5.40;;;17.20;99.90;;;;;;5051910;28;20275;-58
2023/08/05 03:44:55;;;;;;;7.70;4.97;;;17.20;99.90;;;;;;5051818;28;20222;-59
2023/08/05 03:47:21;;;;;;;9.38;4.53;;;17.20;99.90;;;;;;5051806;28;20224;-58
2023/08/05 03:49:48;;;;;;;6.80;5.03;;;17.30;99.90;;;;;;5051615;28;20685;-59
2023/08/05 03:52:15;;;;;;;9.07;5.65;;;17.40;99.90;;;;;;5051897;28;20670;-59
2023/08/05 03:54:41;;;;;;;5.63;5.03;;;17.40;99.90;;;;;;5051807;28;20602;-59
2023/08/05 03:57:09;;;;;;;10.23;5.43;;;17.40;99.90;;;;;;5051541;28;20213;-58
2023/08/05 03:59:35;;;;;;;6.75;5.30;;;17.40;99.90;;;;;;5051711;28;20205;-58
2023/08/05 04:02:04;;;;;;;5.25;4.72;;;17.40;99.90;;;;;;5051840;28;20212;-58
2023/08/05 04:04:30;;;;;;;7.35;5.07;;;17.40;99.90;;;;;;5051651;28;20232;-61
2023/08/05 04:06:57;;;;;;;10.20;5.68;;;17.40;99.90;;;;;;5051421;28;20217;-59
2023/08/05 04:09:25;;;;;;;7.18;5.05;;;17.40;99.90;;;;;;5051596;28;20205;-58
2023/08/05 04:11:53;;;;;;;9.23;4.82;;;17.50;99.90;;;;;;5051558;28;20296;-59
2023/08/05 04:14:20;;;;;;;7.75;4.75;;;17.40;99.90;;;;;;5051635;28;20625;-58
2023/08/05 04:16:48;;;;;;;5.40;4.47;;;17.50;99.90;;;;;;5051378;28;20228;-60
2023/08/05 04:19:17;;;;;;;6.45;4.95;;;17.50;99.90;;;;;;5054383;28;20213;-59
2023/08/05 04:21:47;;;;;;;8.70;5.47;;;17.50;99.90;;;;;;5055763;28;20329;-60
2023/08/05 04:24:16;;;;;;;6.10;5.05;;;17.50;99.90;;;;;;5055476;28;20248;-58
2023/08/05 04:26:42;;;;;;;6.20;4.45;;;17.40;99.90;;;;;;5055168;28;20251;-59
2023/08/05 04:29:10;;;;;;;6.93;4.78;;;17.30;99.90;;;;;;5055369;28;20206;-60
2023/08/05 04:31:38;;;;;;;8.05;4.72;;;17.30;99.90;;;;;;5055573;28;20235;-57
2023/08/05 04:34:04;;;;;;;8.98;5.13;;;17.40;99.90;;;;;;5055406;28;20320;-58
2023/08/05 04:36:32;;;;;;;5.65;4.75;;;17.40;99.90;;;;;;5055631;28;20586;-60
2023/08/05 04:39:02;;;;;;;5.80;5.13;;;17.50;99.90;;;;;;5055233;28;20232;-60
2023/08/05 04:41:29;;;;;;;7.95;4.53;;;17.50;99.90;;;;;;5055220;28;20244;-59
2023/08/05 04:43:57;;;;;;;7.05;4.53;;;17.50;99.90;;;;;;5055327;28;20320;-58
2023/08/05 04:46:24;;;;;;;5.60;4.57;;;17.50;99.90;;;;;;5054994;28;20296;-59
2023/08/05 04:48:50;;;;;;;8.70;4.82;;;17.50;99.90;;;;;;5055119;28;20202;-57
2023/08/05 04:51:17;;;;;;;6.03;5.43;;;17.50;99.90;;;;;;5055098;28;20475;-58
2023/08/05 04:53:45;;;;;;;10.27;4.70;;;17.50;99.90;;;;;;5055000;28;20271;-57
2023/08/05 04:56:12;;;;;;;8.80;5.75;;;17.50;99.90;;;;;;5054708;28;20682;-57
2023/08/05 04:58:39;;;;;;;6.95;4.78;;;17.50;99.90;;;;;;5054772;28;20565;-58
2023/08/05 05:01:06;;;;;;;6.70;5.28;;;17.50;99.90;;;;;;5054801;28;20205;-58
2023/08/05 05:03:32;;;;;;;6.80;5.13;;;17.60;99.90;;;;;;5054655;28;20225;-58
2023/08/05 05:06:00;;;;;;;10.20;5.50;;;17.60;99.90;;;;;;5054375;28;20300;-58
2023/08/05 05:08:27;;;;;;;10.93;5.15;;;17.60;99.90;;;;;;5054943;28;20292;-58
2023/08/05 05:10:55;;;;;;;9.98;4.97;;;17.50;99.90;;;;;;5054843;28;20211;-59
2023/08/05 05:13:22;;;;;;;5.78;4.78;;;17.60;99.90;;;;;;5054807;28;20205;-59
2023/08/05 05:15:52;;;;;;;7.90;5.38;;;17.50;99.90;;;;;;5054229;28;20228;-59
2023/08/05 05:18:19;;;;;;;7.20;4.95;;;17.50;99.90;;;;;;5054617;28;20202;-58
2023/08/05 05:20:49;;;;;;;5.50;5.00;;;17.50;99.90;;;;;;5054381;28;20213;-57
2023/08/05 05:23:15;;;;;;;5.88;4.60;;;17.50;99.90;;;;;;5054442;28;20225;-57
2023/08/05 05:25:42;;;;;;;8.57;5.03;;;17.50;99.90;;;;;;5054280;28;20236;-57
2023/08/05 05:28:10;;;;;;;6.95;4.72;;;17.60;99.90;;;;;;5054454;28;20255;-58
2023/08/05 05:30:37;;;;;;;5.55;4.63;;;17.60;99.90;;;;;;5053980;28;20259;-58
2023/08/05 05:33:04;;;;;;;5.80;4.13;;;17.80;99.90;;;;;;5054675;28;20198;-59
2023/08/05 05:35:31;;;;;;;5.50;4.50;;;17.80;99.90;;;;;;5054194;28;20264;-60
2023/08/05 05:37:57;;;;;;;8.57;4.78;;;17.90;99.90;;;;;;5054085;28;20213;-59
2023/08/05 05:40:24;;;;;;;9.88;4.93;;;18.00;99.90;;;;;;5054266;28;20209;-58
2023/08/05 05:42:51;;;;;;;6.93;4.75;;;18.00;99.90;;;;;;5053998;28;20249;-59
2023/08/05 05:45:21;;;;;;;5.68;4.68;;;18.00;99.90;;;;;;5054082;28;20225;-57
2023/08/05 05:47:48;;;;;;;6.55;5.10;;;18.00;99.90;;;;;;5053457;28;20213;-59
2023/08/05 05:50:16;;;;;;;6.63;4.60;;;18.00;99.90;;;;;;5054101;28;20202;-56
2023/08/05 05:52:43;;;;;;;7.35;4.40;;;18.00;99.90;;;;;;5053943;28;20241;-57
2023/08/05 05:55:09;;;;;;;8.07;4.80;;;18.10;99.90;;;;;;5053710;28;20248;-58
2023/08/05 05:57:36;;;;;;;9.23;4.50;;;18.20;99.90;;;;;;5053604;28;20209;-57
2023/08/05 06:00:04;;;;;;;6.25;4.57;;;18.40;99.90;;;;;;5053775;28;20297;-57
2023/08/05 06:02:33;;;;;;;8.05;4.97;;;18.50;99.90;;;;;;5053786;28;20206;-59
2023/08/05 06:05:00;;;;;;;5.05;4.53;;;18.50;99.90;;;;;;5053813;28;20221;-57
2023/08/05 06:07:27;;;;;;;10.45;5.03;;;18.60;99.90;;;;;;5053457;28;20205;-57
2023/08/05 06:09:54;;;;;;;5.93;4.60;;;18.80;99.90;;;;;;5053677;28;20210;-59
2023/08/05 06:12:24;;;;;;;7.50;4.28;;;18.90;99.90;;;;;;5053655;28;20201;-58
2023/08/05 06:14:51;;;;;;;7.35;4.80;;;19.10;99.90;;;;;;5053276;28;20256;-57
2023/08/05 06:17:18;;;;;;;9.05;5.05;;;19.10;99.90;;;;;;5053079;28;20210;-57
2023/08/05 06:19:46;;;;;;;7.10;4.88;;;19.00;99.90;;;;;;5053492;28;20206;-60
2023/08/05 06:22:13;;;;;;;5.30;4.38;;;18.80;99.90;;;;;;5053460;28;20216;-58
2023/08/05 06:24:40;;;;;;;7.85;4.70;;;18.80;99.90;;;;;;5053317;28;20229;-58
2023/08/05 06:27:07;;;;;;;8.27;4.95;;;18.80;99.90;;;;;;5053006;28;20587;-57
2023/08/05 06:29:34;;;;;;;5.40;4.15;;;18.80;99.90;;;;;;5053192;28;20206;-57
2023/08/05 06:32:00;;;;;;;5.85;3.95;;;18.90;99.90;;;;;;5053364;28;20349;-58
2023/08/05 06:34:27;;;;;;;7.50;4.28;;;19.20;99.90;;;;;;5076289;22;20229;-61
2023/08/05 06:36:55;;;;;;;4.28;3.88;;;19.50;99.90;;;;;;5033393;28;20198;-59
2023/08/05 06:39:22;;;;;;;5.90;3.88;;;19.50;99.90;;;;;;5033391;28;20209;-59
2023/08/05 06:41:48;;;;;;;5.82;4.40;;;19.30;99.90;;;;;;5032292;28;20206;-59
2023/08/05 06:44:15;;;;;;;7.13;4.32;;;19.40;99.90;;;;;;5033029;28;20229;-60
2023/08/05 06:46:42;;;;;;;5.82;4.60;;;19.30;99.90;;;;;;5033225;28;20622;-60
2023/08/05 06:49:09;;;;;;;5.47;4.25;;;19.50;99.90;;;;;;5033138;28;20210;-60
2023/08/05 06:51:37;;;;;;;6.05;4.40;;;19.90;99.90;;;;;;5033001;28;20213;-60
2023/08/05 06:54:05;;;;;;;5.15;4.05;;;19.90;99.90;;;;;;5032769;28;20552;-60
2023/08/05 06:56:32;;;;;;;6.60;3.95;;;20.10;99.90;;;;;;5032860;28;20226;-60
2023/08/05 06:58:58;;;;;;;7.28;4.53;;;19.90;99.90;;;;;;5033170;28;20214;-61
2023/08/05 07:01:25;;;;;;;5.30;4.00;;;19.80;99.90;;;;;;5032884;28;20210;-61
2023/08/05 07:03:52;;;;;;;7.78;4.03;;;19.80;99.90;;;;;;5032855;28;20226;-61
2023/08/05 07:06:19;;;;;;;6.63;4.10;;;20.00;99.90;;;;;;5032700;28;20234;-61
2023/08/05 07:08:45;;;;;;;6.68;4.18;;;20.20;99.90;;;;;;5033182;28;20673;-58
2023/08/05 07:11:13;;;;;;;7.72;4.30;;;20.40;99.90;;;;;;5032644;28;20615;-59
2023/08/05 07:13:40;;;;;;;4.50;4.10;;;20.80;99.90;;;;;;5032768;28;20565;-58
2023/08/05 07:16:07;;;;;;;5.75;4.15;;;20.90;99.90;;;;;;5032337;28;20233;-59
2023/08/05 07:18:34;;;;;;;4.85;3.88;;;21.10;99.90;;;;;;5032750;28;20229;-60
2023/08/05 07:21:01;;;;;;;5.90;3.95;;;21.20;99.90;;;;;;5032417;28;20221;-60
2023/08/05 07:23:27;;;;;;;4.28;3.58;;;21.10;99.90;;;;;;5032244;28;20638;-60
2023/08/05 07:25:54;;;;;;;4.30;3.58;;;21.20;99.90;;;;;;5032171;28;20256;-60
2023/08/05 07:28:22;;;;;;;3.83;3.28;;;21.20;99.90;;;;;;5032612;28;20210;-60
2023/08/05 07:30:49;;;;;;;7.25;3.70;;;21.20;99.90;;;;;;5032424;28;20213;-59
2023/08/05 07:33:17;;;;;;;5.38;3.28;;;21.40;99.90;;;;;;5032461;28;20317;-60
2023/08/05 07:35:43;;;;;;;6.10;3.90;;;21.40;99.90;;;;;;5032025;28;20234;-60
2023/08/05 07:38:10;;;;;;;3.97;3.35;;;21.60;99.90;;;;;;5032246;28;20217;-60
2023/08/05 07:40:38;;;;;;;4.47;3.35;;;21.60;99.90;;;;;;5032599;28;20213;-59
2023/08/05 07:43:06;;;;;;;5.15;2.97;;;21.70;99.90;;;;;;5032450;28;20210;-60
2023/08/05 07:45:35;;;;;;;5.10;3.45;;;21.60;99.90;;;;;;5032157;28;20222;-60
2023/08/05 07:48:06;;;;;;;4.70;3.88;;;21.70;99.90;;;;;;5032101;28;20616;-59
2023/08/05 07:50:33;;;;;;;4.88;3.58;;;21.50;99.90;;;;;;5032192;28;20212;-59
2023/08/05 07:53:00;;;;;;;5.50;3.00;;;21.30;99.90;;;;;;5031955;28;20213;-59
2023/08/05 07:55:32;;;;;;;5.32;2.95;;;21.40;99.90;;;;;;5031930;28;20234;-59
2023/08/05 07:57:58;;;;;;;5.85;3.00;;;21.60;99.90;;;;;;5031843;28;20206;-60
2023/08/05 08:00:27;;;;;;;4.93;3.10;;;21.80;99.90;;;;;;5032090;28;20206;-59
2023/08/05 08:02:55;;;;;;;5.13;3.35;;;21.90;99.90;;;;;;5032065;28;20324;-59
2023/08/05 08:05:21;;;;;;;4.68;2.95;;;22.20;99.90;;;;;;5031715;28;20226;-59
2023/08/05 08:07:50;;;;;;;3.67;3.10;;;22.30;99.90;;;;;;5031530;28;20213;-60
2023/08/05 08:10:17;;;;;;;3.22;2.60;;;22.10;99.90;;;;;;5031641;28;20654;-60
2023/08/05 08:12:46;;;;;;;2.63;2.42;;;22.00;99.90;;;;;;5031859;28;20210;-59
2023/08/05 08:15:12;;;;;;;4.93;3.00;;;22.30;99.90;;;;;;5032445;28;20222;-59
2023/08/05 08:17:39;;;;;;;4.53;3.47;;;22.40;99.90;;;;;;5032686;28;20202;-60
2023/08/05 08:20:08;;;;;;;4.18;2.90;;;22.50;99.90;;;;;;5032356;28;20260;-59
2023/08/05 08:22:34;;;;;;;4.93;2.70;;;22.80;99.90;;;;;;5032661;28;20206;-59
2023/08/05 08:25:01;;;;;;;4.72;2.40;;;23.10;99.90;;;;;;5032104;28;20225;-60
2023/08/05 08:27:28;;;;;;;4.50;2.90;;;23.70;99.90;;;;;;5032099;28;20232;-60
2023/08/05 08:29:55;;;;;;;6.35;2.58;;;24.70;99.90;;;;;;5031770;28;20213;-60
2023/08/05 08:32:21;;;;;;;4.15;2.40;;;25.70;99.90;;;;;;5031644;28;20211;-60
2023/08/05 08:34:48;;;;;;;4.47;2.47;;;26.00;99.90;;;;;;5032172;28;20299;-59
2023/08/05 08:37:17;;;;;;;3.20;2.60;;;25.70;99.90;;;;;;5031679;28;20206;-60
2023/08/05 08:39:44;;;;;;;3.13;2.63;;;25.10;99.90;;;;;;5031758;28;20563;-60
2023/08/05 08:42:11;;;;;;;3.10;2.22;;;24.80;99.90;;;;;;5031538;28;20210;-60
2023/08/05 08:44:39;;;;;;;4.63;2.47;;;25.00;99.90;;;;;;5031357;28;20237;-60
2023/08/05 08:47:07;;;;;;;3.03;2.20;;;25.40;99.90;;;;;;5031110;28;20213;-61
2023/08/05 08:49:36;;;;;;;2.60;2.40;;;25.90;99.90;;;;;;5031592;28;20214;-61
2023/08/05 08:52:04;;;;;;;5.15;2.67;;;26.20;99.90;;;;;;5031436;28;20214;-60
2023/08/05 08:54:32;;;;;;;3.13;2.40;;;26.10;99.90;;;;;;5031560;28;20287;-60
2023/08/05 08:56:59;;;;;;;3.20;2.38;;;26.00;99.90;;;;;;5031034;28;20213;-60
2023/08/05 08:59:26;;;;;;;5.55;2.50;;;26.10;99.90;;;;;;5031263;28;20678;-60
2023/08/05 09:01:54;;;;;;;3.88;2.30;;;26.40;99.90;;;;;;5032723;28;20203;-60
2023/08/05 09:04:23;;;;;;;5.47;3.10;;;26.30;99.90;;;;;;5032858;28;20230;-61
2023/08/05 09:06:52;;;;;;;3.10;2.28;;;26.30;99.90;;;;;;5035091;28;20358;-61
2023/08/05 09:09:18;;;;;;;4.53;2.20;;;26.40;99.90;;;;;;5034866;28;20228;-60
2023/08/05 09:11:46;;;;;;;4.05;2.50;;;26.60;99.90;;;;;;5034805;28;20202;-60
2023/08/05 09:14:15;;;;;;;3.10;2.40;;;26.90;99.90;;;;;;5034679;28;20582;-60
2023/08/05 09:16:57;;;;;;;3.05;2.40;;;27.00;99.90;;;;;;5030692;28;20705;-60
2023/08/05 09:19:25;;;;;;;4.53;2.30;;;27.30;99.90;;;;;;5033378;28;20237;-62
2023/08/05 09:21:52;;;;;;;2.50;2.30;;;27.40;99.90;;;;;;5033679;28;20268;-62
2023/08/05 09:24:23;;;;;;;4.43;2.00;;;27.20;99.90;;;;;;5033277;28;20218;-63
2023/08/05 09:26:54;;;;;;;3.25;1.95;;;26.90;99.90;;;;;;5033341;28;20234;-63
2023/08/05 09:29:22;;;;;;;2.65;2.08;;;26.60;99.90;;;;;;5033486;28;20607;-63
2023/08/05 09:31:55;;;;;;;3.03;1.90;;;26.60;99.90;;;;;;5033447;28;20690;-60
2023/08/05 09:34:22;;;;;;;3.13;1.92;;;26.60;99.90;;;;;;5033280;28;20202;-62
2023/08/05 09:36:49;;;;;;;4.55;2.13;;;26.30;99.90;;;;;;5033203;28;20206;-62
2023/08/05 09:39:16;;;;;;;2.65;2.00;;;26.00;99.90;;;;;;5033371;28;20210;-62
2023/08/05 09:41:51;;;;;;;3.28;2.22;;;26.30;99.90;;;;;;5033711;28;20228;-63
2023/08/05 09:44:18;;;;;;;2.28;1.95;;;26.50;99.90;;;;;;5032998;28;20700;-63
2023/08/05 09:46:46;;;;;;;3.08;1.90;;;26.90;99.90;;;;;;5032809;28;20520;-63
2023/08/05 09:49:14;;;;;;;4.00;2.00;;;27.30;99.90;;;;;;5033054;28;20214;-63
2023/08/05 09:51:43;;;;;;;3.67;2.00;;;27.70;99.90;;;;;;5033569;28;20206;-58
2023/08/05 09:54:13;;;;;;;3.63;2.10;;;27.70;99.90;;;;;;5034041;28;20232;-59
2023/08/05 09:56:40;;;;;;;4.05;2.10;;;27.50;99.90;;;;;;5033742;28;20226;-59
2023/08/05 09:59:12;;;;;;;2.58;1.67;;;27.30;99.90;;;;;;5033931;28;20213;-58
2023/08/05 10:01:40;;;;;;;2.25;1.73;;;26.60;99.90;;;;;;5033950;28;20285;-58
2023/08/05 10:04:09;;;;;;;1.70;1.42;;;26.00;99.90;;;;;;5033740;28;20309;-58
2023/08/05 10:06:38;;;;;;;1.50;1.35;;;25.70;99.90;;;;;;5033667;28;20226;-59
2023/08/05 10:09:07;;;;;;;2.40;1.98;;;25.70;99.90;;;;;;5033969;28;20370;-59
2023/08/05 10:11:36;;;;;;;3.70;1.75;;;25.80;99.90;;;;;;5033654;28;20214;-59
2023/08/05 10:14:04;;;;;;;2.88;1.48;;;26.00;99.90;;;;;;5033511;28;20680;-58
2023/08/05 10:16:33;;;;;;;3.92;1.60;;;26.30;99.90;;;;;;5031915;28;20740;-61
2023/08/05 10:19:00;;;;;;;1.83;1.70;;;26.60;99.90;;;;;;5034301;28;20215;-61
2023/08/05 10:21:37;;;;;;;2.22;1.73;;;26.80;99.90;;;;;;5033973;28;20210;-58
2023/08/05 10:24:04;;;;;;;2.65;1.80;;;26.90;99.90;;;;;;5033851;28;20210;-58
2023/08/05 10:26:45;;;;;;;5.20;1.95;;;27.00;99.90;;;;;;5033359;28;20230;-58
2023/08/05 10:29:28;;;;;;;2.90;1.42;;;27.10;99.90;;;;;;5033646;28;20677;-59
2023/08/05 10:32:10;;;;;;;2.05;1.40;;;26.90;99.90;;;;;;5033471;28;20213;-59
2023/08/05 10:34:37;;;;;;;2.17;1.58;;;26.70;99.90;;;;;;5033288;28;20736;-59
2023/08/05 10:37:04;;;;;;;2.03;1.58;;;26.70;99.90;;;;;;5033608;28;20210;-58
2023/08/05 10:40:00;;;;;;;2.72;1.73;;;26.80;99.90;;;;;;5033501;28;20230;-59
2023/08/05 10:42:36;;;;;;;4.03;1.83;;;27.10;99.90;;;;;;5032210;28;20214;-59
2023/08/05 10:45:08;;;;;;;2.80;1.75;;;27.40;99.90;;;;;;5033284;28;20236;-59
2023/08/05 10:47:47;;;;;;;2.92;1.80;;;27.20;99.90;;;;;;5032789;28;20209;-59
2023/08/05 10:50:15;;;;;;;1.92;1.40;;;26.90;99.90;;;;;;5033147;28;20262;-59
2023/08/05 10:52:41;;;;;;;2.97;1.60;;;27.00;99.90;;;;;;5033156;28;20222;-59
2023/08/05 10:55:12;;;;;;;2.80;2.40;;;27.20;99.90;;;;;;5032998;28;20218;-59
2023/08/05 10:57:46;;;;;;;2.78;1.65;;;27.60;99.90;;;;;;5032647;28;20242;-61
2023/08/05 11:00:21;;;;;;;3.90;1.88;;;27.80;99.30;;;;;;5032792;28;20564;-62
2023/08/05 11:03:10;;;;;;;3.15;1.58;;;27.70;99.60;;;;;;5032950;28;20260;-60
2023/08/05 11:05:37;;;;;;;1.42;1.30;;;27.70;99.60;;;;;;5032518;28;20754;-62
2023/08/05 11:08:04;;;;;;;3.38;1.65;;;27.80;98.30;;;;;;5032656;28;20209;-58
2023/08/05 11:10:31;;;;;;;1.80;1.40;;;27.80;97.60;;;;;;5032323;28;20206;-59
2023/08/05 11:12:59;;;;;;;5.60;1.65;;;28.00;97.50;;;;;;5032544;28;20238;-58
2023/08/05 11:15:25;;;;;;;2.15;1.30;;;28.10;96.70;;;;;;5032543;28;20222;-59
2023/08/05 11:17:56;;;;;;;2.13;1.60;;;28.30;96.10;;;;;;5032653;28;20213;-58
2023/08/05 11:20:31;;;;;;;2.15;1.40;;;28.40;96.20;;;;;;5032976;28;20206;-59
2023/08/05 11:22:58;;;;;;;2.55;1.40;;;28.30;94.80;;;;;;5032837;28;20237;-58
2023/08/05 11:25:25;;;;;;;1.50;1.38;;;28.10;94.90;;;;;;5032261;28;20230;-58
2023/08/05 11:27:53;;;;;;;2.63;1.65;;;27.80;96.20;;;;;;5031751;28;20210;-58
2023/08/05 11:30:21;;;;;;;2.85;1.70;;;27.70;96.90;;;;;;5032339;28;20309;-59
2023/08/05 11:32:52;;;;;;;2.30;1.90;;;27.50;97.50;;;;;;5032326;28;20228;-60
2023/08/05 11:35:20;;;;;;;2.50;2.30;;;27.60;97.90;;;;;;5032352;28;20226;-58
2023/08/05 11:37:47;;;;;;;1.63;1.23;;;27.80;96.60;;;;;;5032219;28;20292;-58
2023/08/05 11:40:14;;;;;;;2.42;1.40;;;27.60;96.90;;;;;;5032426;28;20213;-58
2023/08/05 11:42:41;;;;;;;1.55;1.45;;;27.50;97.00;;;;;;5032345;28;20217;-60
2023/08/05 11:45:11;;;;;;;2.20;1.80;;;27.70;96.90;;;;;;5031989;28;20241;-59
2023/08/05 11:47:38;;;;;;;3.30;1.75;;;28.10;96.10;;;;;;5031801;28;20249;-60
2023/08/05 11:50:06;;;;;;;2.08;1.38;;;28.40;96.00;;;;;;5031989;28;20213;-60
2023/08/05 11:52:34;;;;;;;1.67;1.50;;;28.50;95.60;;;;;;5032142;28;20210;-60
2023/08/05 11:55:04;;;;;;;1.88;1.17;;;28.20;95.50;;;;;;5031999;28;20226;-60
2023/08/05 11:57:32;;;;;;;2.08;1.33;;;27.80;95.30;;;;;;5031827;28;20217;-60
2023/08/05 12:00:04;;;;;;;1.67;1.40;;;27.50;95.60;;;;;;5032136;28;20206;-60
2023/08/05 12:02:33;;;;;;;1.58;1.40;;;27.40;95.40;;;;;;5031876;28;20206;-62
2023/08/05 12:05:00;;;;;;;3.88;1.80;;;27.20;95.10;;;;;;5032123;28;20253;-59
2023/08/05 12:07:27;;;;;;;3.20;1.42;;;27.30;94.40;;;;;;5031561;28;20698;-59
2023/08/05 12:10:11;;;;;;;1.77;1.30;;;27.30;93.60;;;;;;5031675;28;20578;-58
2023/08/05 12:12:39;;;;;;;1.75;1.23;;;27.20;93.40;;;;;;5031935;28;20465;-59
2023/08/05 12:15:10;;;;;;;1.98;1.40;;;27.10;93.90;;;;;;5031578;28;20227;-59
2023/08/05 12:17:37;;;;;;;2.45;1.63;;;26.90;93.80;;;;;;5031454;28;20260;-59
2023/08/05 12:20:08;;;;;;;1.70;1.48;;;27.20;93.70;;;;;;5031787;28;20206;-60
2023/08/05 12:22:35;;;;;;;1.83;1.50;;;27.40;94.20;;;;;;5031706;28;20217;-59
2023/08/05 12:25:02;;;;;;;2.10;1.50;;;27.50;94.40;;;;;;5031776;28;20230;-59
2023/08/05 12:27:30;;;;;;;3.53;1.73;;;27.80;94.10;;;;;;5031490;28;20210;-61
2023/08/05 12:29:57;;;;;;;1.98;1.52;;;28.20;93.90;;;;;;5031671;28;20233;-61
2023/08/05 12:32:23;;;;;;;2.22;1.35;;;28.30;92.90;;;;;;5032165;28;20225;-60
2023/08/05 12:34:50;;;;;;;2.47;1.60;;;28.40;92.40;;;;;;5058059;22;20237;-61
2023/08/05 12:37:17;;;;;;;3.70;1.65;;;28.20;92.70;;;;;;5071135;28;20200;-61
2023/08/05 12:39:43;;;;;;;3.03;1.60;;;28.10;93.50;;;;;;5072953;28;20205;-61
2023/08/05 12:42:10;;;;;;;2.35;1.80;;;28.00;93.40;;;;;;5075092;28;20672;-63
2023/08/05 12:44:41;;;;;;;1.80;1.33;;;27.80;93.60;;;;;;5074902;28;20201;-61
2023/08/05 12:47:08;;;;;;;4.18;1.52;;;27.80;93.30;;;;;;5054965;28;20209;-61
2023/08/05 12:49:36;;;;;;;2.25;1.60;;;27.80;93.30;;;;;;5055244;28;20212;-62